createdAt,value
2018-05-24T00:00:47.775Z,0.00
2018-05-24T00:01:47.756Z,0.00
2018-05-24T00:02:47.746Z,0.00
2018-05-24T00:03:47.737Z,0.00
2018-05-24T00:04:47.724Z,0.00
2018-05-24T00:05:47.724Z,0.00
2018-05-24T00:06:47.703Z,0.00
2018-05-24T00:07:47.695Z,0.00
2018-05-24T00:08:47.671Z,0.00
2018-05-24T00:09:47.658Z,0.00
2018-05-24T00:10:47.655Z,0.00
2018-05-24T00:11:47.636Z,0.00
2018-05-24T00:12:47.627Z,0.00
2018-05-24T00:13:47.613Z,0.00
2018-05-24T00:14:47.602Z,0.00
2018-05-24T00:15:47.592Z,0.00
2018-05-24T00:16:47.587Z,0.00
2018-05-24T00:17:47.570Z,0.00
2018-05-24T00:18:47.560Z,0.00
2018-05-24T00:19:47.544Z,0.00
2018-05-24T00:20:47.535Z,0.00
2018-05-24T00:21:47.518Z,0.00
2018-05-24T00:22:47.515Z,0.00
2018-05-24T00:23:47.507Z,0.00
2018-05-24T00:24:47.490Z,0.00
2018-05-24T00:25:47.472Z,0.00
2018-05-24T00:26:47.465Z,0.00
2018-05-24T00:27:47.453Z,0.00
2018-05-24T00:28:47.446Z,0.00
2018-05-24T00:29:47.424Z,0.00
2018-05-24T00:30:47.414Z,0.00
2018-05-24T00:31:47.404Z,0.00
2018-05-24T00:32:47.394Z,0.00
2018-05-24T00:33:47.378Z,0.00
2018-05-24T00:34:47.382Z,0.00
2018-05-24T00:35:47.359Z,0.00
2018-05-24T00:36:47.346Z,0.00
2018-05-24T00:37:47.334Z,0.00
2018-05-24T00:38:47.321Z,0.00
2018-05-24T00:39:47.308Z,0.00
2018-05-24T00:40:47.304Z,0.00
2018-05-24T00:41:47.288Z,0.00
2018-05-24T00:42:47.273Z,0.00
2018-05-24T00:43:47.266Z,0.00
2018-05-24T00:44:47.248Z,0.00
2018-05-24T00:45:47.238Z,0.00
2018-05-24T00:46:47.225Z,0.00
2018-05-24T00:47:47.216Z,0.00
2018-05-24T00:48:47.202Z,0.00
2018-05-24T00:49:47.186Z,0.00
2018-05-24T00:50:47.180Z,0.00
2018-05-24T00:51:47.169Z,0.00
2018-05-24T00:52:47.152Z,0.00
2018-05-24T00:53:47.138Z,0.00
2018-05-24T00:54:47.241Z,0.00
2018-05-24T00:55:47.123Z,0.00
2018-05-24T00:56:47.101Z,0.00
2018-05-24T00:57:47.091Z,0.00
2018-05-24T00:58:47.124Z,0.00
2018-05-24T00:59:47.068Z,0.00
2018-05-24T01:00:47.054Z,0.00
2018-05-24T01:01:47.043Z,0.00
2018-05-24T01:02:47.030Z,0.00
2018-05-24T01:03:47.171Z,0.00
2018-05-24T01:04:47.006Z,0.00
2018-05-24T01:05:47.096Z,0.00
2018-05-24T01:06:46.976Z,0.00
2018-05-24T01:07:47.121Z,0.00
2018-05-24T01:08:46.959Z,0.00
2018-05-24T01:09:46.949Z,0.00
2018-05-24T01:10:46.928Z,0.00
2018-05-24T01:11:47.020Z,0.00
2018-05-24T01:12:46.908Z,0.00
2018-05-24T01:13:46.899Z,0.00
2018-05-24T01:14:46.895Z,0.00
2018-05-24T01:15:47.009Z,0.00
2018-05-24T01:16:46.862Z,0.00
2018-05-24T01:17:46.898Z,0.00
2018-05-24T01:18:46.837Z,0.00
2018-05-24T01:19:46.827Z,0.00
2018-05-24T01:20:46.812Z,0.00
2018-05-24T01:21:46.802Z,0.00
2018-05-24T01:22:46.791Z,0.00
2018-05-24T01:23:46.777Z,0.00
2018-05-24T01:24:46.756Z,0.00
2018-05-24T01:25:46.744Z,0.00
2018-05-24T01:26:46.758Z,0.00
2018-05-24T01:27:46.731Z,0.00
2018-05-24T01:28:46.719Z,0.00
2018-05-24T01:29:46.713Z,0.00
2018-05-24T01:30:46.698Z,0.00
2018-05-24T01:31:46.678Z,0.00
2018-05-24T01:32:46.673Z,0.00
2018-05-24T01:33:46.657Z,0.00
2018-05-24T01:34:46.644Z,0.00
2018-05-24T01:35:46.628Z,0.00
2018-05-24T01:36:46.622Z,0.00
2018-05-24T01:37:46.602Z,0.00
2018-05-24T01:38:46.596Z,0.00
2018-05-24T01:39:46.577Z,0.00
2018-05-24T01:40:46.567Z,0.00
2018-05-24T01:41:46.555Z,0.00
2018-05-24T01:42:46.551Z,0.00
2018-05-24T01:43:46.536Z,0.00
2018-05-24T01:44:46.523Z,0.00
2018-05-24T01:45:46.510Z,0.00
2018-05-24T01:46:46.504Z,0.00
2018-05-24T01:47:46.487Z,0.00
2018-05-24T01:48:46.479Z,0.00
2018-05-24T01:49:46.462Z,0.00
2018-05-24T01:50:46.446Z,0.00
2018-05-24T01:51:46.440Z,0.00
2018-05-24T01:52:46.420Z,0.00
2018-05-24T01:53:46.418Z,0.00
2018-05-24T01:54:46.399Z,0.00
2018-05-24T01:55:46.392Z,0.00
2018-05-24T01:56:46.382Z,0.00
2018-05-24T01:57:46.373Z,0.00
2018-05-24T01:58:46.347Z,0.00
2018-05-24T01:59:46.341Z,0.00
2018-05-24T02:00:46.328Z,0.00
2018-05-24T02:01:46.314Z,0.00
2018-05-24T02:02:46.317Z,0.00
2018-05-24T02:03:46.299Z,0.00
2018-05-24T02:04:46.277Z,0.00
2018-05-24T02:05:46.261Z,0.00
2018-05-24T02:06:46.260Z,0.00
2018-05-24T02:07:46.252Z,0.00
2018-05-24T02:08:46.233Z,0.00
2018-05-24T02:09:46.217Z,0.00
2018-05-24T02:10:46.205Z,0.00
2018-05-24T02:11:46.196Z,0.00
2018-05-24T02:12:46.184Z,0.00
2018-05-24T02:13:46.172Z,0.00
2018-05-24T02:14:46.159Z,0.00
2018-05-24T02:15:46.149Z,0.00
2018-05-24T02:16:46.134Z,0.00
2018-05-24T02:17:46.124Z,0.00
2018-05-24T02:18:46.114Z,0.00
2018-05-24T02:19:46.098Z,0.00
2018-05-24T02:20:46.093Z,0.00
2018-05-24T02:21:46.073Z,0.00
2018-05-24T02:22:46.057Z,0.00
2018-05-24T02:23:46.049Z,0.00
2018-05-24T02:24:46.038Z,0.00
2018-05-24T02:25:46.026Z,0.00
2018-05-24T02:26:46.013Z,0.00
2018-05-24T02:27:46.003Z,0.00
2018-05-24T02:28:46.042Z,0.00
2018-05-24T02:29:45.977Z,0.00
2018-05-24T02:30:45.961Z,0.00
2018-05-24T02:31:45.952Z,0.00
2018-05-24T02:32:45.988Z,0.00
2018-05-24T02:33:45.933Z,0.00
2018-05-24T02:34:45.917Z,0.00
2018-05-24T02:35:45.932Z,0.00
2018-05-24T02:36:45.906Z,0.00
2018-05-24T02:37:45.876Z,0.00
2018-05-24T02:38:45.869Z,0.00
2018-05-24T02:39:45.854Z,0.00
2018-05-24T02:40:45.847Z,0.00
2018-05-24T02:41:45.834Z,0.00
2018-05-24T02:42:45.819Z,0.00
2018-05-24T02:43:45.799Z,0.00
2018-05-24T02:44:45.804Z,0.00
2018-05-24T02:45:45.784Z,0.00
2018-05-24T02:46:45.772Z,0.00
2018-05-24T02:47:45.758Z,0.00
2018-05-24T02:48:45.747Z,0.00
2018-05-24T02:49:45.736Z,0.00
2018-05-24T02:50:45.717Z,0.00
2018-05-24T02:51:45.712Z,0.00
2018-05-24T02:52:45.702Z,0.00
2018-05-24T02:53:45.684Z,0.00
2018-05-24T02:54:45.674Z,0.00
2018-05-24T02:55:45.656Z,0.00
2018-05-24T02:56:45.651Z,0.00
2018-05-24T02:57:45.636Z,0.00
2018-05-24T02:58:45.625Z,0.00
2018-05-24T02:59:45.620Z,0.00
2018-05-24T03:00:45.603Z,0.00
2018-05-24T03:01:45.612Z,0.00
2018-05-24T03:02:45.583Z,0.00
2018-05-24T03:03:45.607Z,0.00
2018-05-24T03:04:45.558Z,0.00
2018-05-24T03:05:45.537Z,0.00
2018-05-24T03:06:45.518Z,0.00
2018-05-24T03:07:45.517Z,0.00
2018-05-24T03:08:45.502Z,0.00
2018-05-24T03:09:45.491Z,0.00
2018-05-24T03:10:45.550Z,0.00
2018-05-24T03:11:45.463Z,0.00
2018-05-24T03:12:45.452Z,0.00
2018-05-24T03:13:45.446Z,0.00
2018-05-24T03:14:45.425Z,0.00
2018-05-24T03:15:45.416Z,0.00
2018-05-24T03:16:45.403Z,0.00
2018-05-24T03:17:45.387Z,0.00
2018-05-24T03:18:45.381Z,0.00
2018-05-24T03:19:45.367Z,0.00
2018-05-24T03:20:45.354Z,0.00
2018-05-24T03:21:45.392Z,0.00
2018-05-24T03:22:45.328Z,0.00
2018-05-24T03:23:45.352Z,0.00
2018-05-24T03:24:45.306Z,0.00
2018-05-24T03:25:45.306Z,0.00
2018-05-24T03:26:45.279Z,0.00
2018-05-24T03:27:45.315Z,0.00
2018-05-24T03:28:45.257Z,0.00
2018-05-24T03:29:45.242Z,0.00
2018-05-24T03:30:45.232Z,0.00
2018-05-24T03:31:45.228Z,0.00
2018-05-24T03:32:45.207Z,0.00
2018-05-24T03:33:45.189Z,0.00
2018-05-24T03:34:45.176Z,0.00
2018-05-24T03:35:45.172Z,0.00
2018-05-24T03:36:45.164Z,0.00
2018-05-24T03:37:45.152Z,0.00
2018-05-24T03:38:45.129Z,0.00
2018-05-24T03:39:45.120Z,0.00
2018-05-24T03:40:45.113Z,0.00
2018-05-24T03:41:45.100Z,0.00
2018-05-24T03:42:45.084Z,0.00
2018-05-24T03:43:45.071Z,0.00
2018-05-24T03:44:45.058Z,0.00
2018-05-24T03:45:45.051Z,0.00
2018-05-24T03:46:45.036Z,0.00
2018-05-24T03:47:45.023Z,0.00
2018-05-24T03:48:45.013Z,0.00
2018-05-24T03:49:44.997Z,0.00
2018-05-24T03:50:44.991Z,0.00
2018-05-24T03:51:44.978Z,0.00
2018-05-24T03:52:44.963Z,0.00
2018-05-24T03:53:44.943Z,0.00
2018-05-24T03:54:44.943Z,0.00
2018-05-24T03:55:44.932Z,0.00
2018-05-24T03:56:44.910Z,0.00
2018-05-24T03:57:44.922Z,0.00
2018-05-24T03:58:44.891Z,0.00
2018-05-24T03:59:44.879Z,0.00
2018-05-24T04:00:44.872Z,0.00
2018-05-24T04:01:44.850Z,0.00
2018-05-24T04:02:44.843Z,0.00
2018-05-24T04:03:44.827Z,0.00
2018-05-24T04:04:44.814Z,0.00
2018-05-24T04:05:44.869Z,0.00
2018-05-24T04:06:44.782Z,0.00
2018-05-24T04:07:44.785Z,5.63
2018-05-24T04:08:44.773Z,5.63
2018-05-24T04:09:44.758Z,5.63
2018-05-24T04:10:44.741Z,5.63
2018-05-24T04:11:44.734Z,5.63
2018-05-24T04:12:44.716Z,5.63
2018-05-24T04:13:44.712Z,5.63
2018-05-24T04:14:44.690Z,5.63
2018-05-24T04:15:44.677Z,5.63
2018-05-24T04:16:44.667Z,5.63
2018-05-24T04:17:44.663Z,5.63
2018-05-24T04:18:44.638Z,5.63
2018-05-24T04:19:44.625Z,5.63
2018-05-24T04:20:44.619Z,5.63
2018-05-24T04:21:44.612Z,5.63
2018-05-24T04:22:44.591Z,5.63
2018-05-24T04:23:44.587Z,5.63
2018-05-24T04:24:44.574Z,5.63
2018-05-24T04:25:44.558Z,5.63
2018-05-24T04:26:44.538Z,5.63
2018-05-24T04:27:44.533Z,5.63
2018-05-24T04:28:44.523Z,11.25
2018-05-24T04:29:44.509Z,11.25
2018-05-24T04:30:44.513Z,11.25
2018-05-24T04:31:44.484Z,11.25
2018-05-24T04:32:44.468Z,11.25
2018-05-24T04:33:44.462Z,11.25
2018-05-24T04:34:44.597Z,11.25
2018-05-24T04:35:44.442Z,11.25
2018-05-24T04:36:44.446Z,11.25
2018-05-24T04:37:44.407Z,16.88
2018-05-24T04:38:44.464Z,16.88
2018-05-24T04:39:44.389Z,16.88
2018-05-24T04:40:44.378Z,16.88
2018-05-24T04:41:44.362Z,16.88
2018-05-24T04:42:44.403Z,16.88
2018-05-24T04:43:44.340Z,16.88
2018-05-24T04:44:44.328Z,16.88
2018-05-24T04:45:44.313Z,16.88
2018-05-24T04:46:44.297Z,22.50
2018-05-24T04:47:44.287Z,22.50
2018-05-24T04:48:44.334Z,22.50
2018-05-24T04:49:44.261Z,22.50
2018-05-24T04:50:44.300Z,22.50
2018-05-24T04:51:44.239Z,22.50
2018-05-24T04:52:44.230Z,22.50
2018-05-24T04:53:44.213Z,22.50
2018-05-24T04:54:44.255Z,22.50
2018-05-24T04:55:44.194Z,22.50
2018-05-24T04:56:44.182Z,28.13
2018-05-24T04:57:44.164Z,28.13
2018-05-24T04:58:44.162Z,33.75
2018-05-24T04:59:44.153Z,33.75
2018-05-24T05:00:44.126Z,33.75
2018-05-24T05:01:44.277Z,39.38
2018-05-24T05:02:44.115Z,39.38
2018-05-24T05:03:44.095Z,39.38
2018-05-24T05:04:44.083Z,39.38
2018-05-24T05:05:44.070Z,39.38
2018-05-24T05:06:44.057Z,39.38
2018-05-24T05:07:44.048Z,39.38
2018-05-24T05:08:44.040Z,39.38
2018-05-24T05:09:44.015Z,39.38
2018-05-24T05:10:44.012Z,39.38
2018-05-24T05:11:43.999Z,39.38
2018-05-24T05:12:43.993Z,39.38
2018-05-24T05:13:43.974Z,39.38
2018-05-24T05:14:44.005Z,39.38
2018-05-24T05:15:43.951Z,39.38
2018-05-24T05:16:43.939Z,39.38
2018-05-24T05:17:43.923Z,39.38
2018-05-24T05:18:43.914Z,39.38
2018-05-24T05:19:43.955Z,39.38
2018-05-24T05:20:43.892Z,39.38
2018-05-24T05:21:43.872Z,39.38
2018-05-24T05:22:43.869Z,45.00
2018-05-24T05:23:43.856Z,45.00
2018-05-24T05:24:43.840Z,45.00
2018-05-24T05:25:43.827Z,45.00
2018-05-24T05:26:43.818Z,50.63
2018-05-24T05:27:43.808Z,50.63
2018-05-24T05:28:43.802Z,50.63
2018-05-24T05:29:43.789Z,56.25
2018-05-24T05:30:43.769Z,56.25
2018-05-24T05:31:43.824Z,56.25
2018-05-24T05:32:43.748Z,61.88
2018-05-24T05:33:43.735Z,61.88
2018-05-24T05:34:43.733Z,61.88
2018-05-24T05:35:43.713Z,67.50
2018-05-24T05:36:43.707Z,67.50
2018-05-24T05:37:43.694Z,67.50
2018-05-24T05:38:43.681Z,73.13
2018-05-24T05:39:43.662Z,73.13
2018-05-24T05:40:43.653Z,73.13
2018-05-24T05:41:43.642Z,67.50
2018-05-24T05:42:43.632Z,67.50
2018-05-24T05:43:43.623Z,67.50
2018-05-24T05:44:43.643Z,67.50
2018-05-24T05:45:43.595Z,67.50
2018-05-24T05:46:43.589Z,67.50
2018-05-24T05:47:43.573Z,73.13
2018-05-24T05:48:43.563Z,73.13
2018-05-24T05:49:43.553Z,78.75
2018-05-24T05:50:43.540Z,84.38
2018-05-24T05:51:43.527Z,90.00
2018-05-24T05:52:43.521Z,95.63
2018-05-24T05:53:43.503Z,95.63
2018-05-24T05:54:43.494Z,101.25
2018-05-24T05:55:43.480Z,106.88
2018-05-24T05:56:43.472Z,112.50
2018-05-24T05:57:43.458Z,112.50
2018-05-24T05:58:43.448Z,118.13
2018-05-24T05:59:43.435Z,112.50
2018-05-24T06:00:43.423Z,112.50
2018-05-24T06:01:43.473Z,118.13
2018-05-24T06:02:43.404Z,123.75
2018-05-24T06:03:43.385Z,129.38
2018-05-24T06:04:43.372Z,135.00
2018-05-24T06:05:43.369Z,135.00
2018-05-24T06:06:43.356Z,140.63
2018-05-24T06:07:43.346Z,140.63
2018-05-24T06:08:43.330Z,140.63
2018-05-24T06:09:43.347Z,140.63
2018-05-24T06:10:43.312Z,135.00
2018-05-24T06:11:43.303Z,135.00
2018-05-24T06:12:43.294Z,129.38
2018-05-24T06:13:43.285Z,129.38
2018-05-24T06:14:43.269Z,129.38
2018-05-24T06:15:43.259Z,123.75
2018-05-24T06:16:43.245Z,123.75
2018-05-24T06:17:43.231Z,123.75
2018-05-24T06:18:43.217Z,118.13
2018-05-24T06:19:43.207Z,118.13
2018-05-24T06:20:43.201Z,112.50
2018-05-24T06:21:43.268Z,112.50
2018-05-24T06:22:43.172Z,112.50
2018-05-24T06:23:43.168Z,112.50
2018-05-24T06:24:43.162Z,118.13
2018-05-24T06:25:43.154Z,118.13
2018-05-24T06:26:43.137Z,123.75
2018-05-24T06:27:43.124Z,129.38
2018-05-24T06:28:43.118Z,135.00
2018-05-24T06:29:43.100Z,140.63
2018-05-24T06:30:43.093Z,140.63
2018-05-24T06:31:43.087Z,146.25
2018-05-24T06:32:43.100Z,146.25
2018-05-24T06:33:43.061Z,151.88
2018-05-24T06:34:43.140Z,151.88
2018-05-24T06:35:43.043Z,157.50
2018-05-24T06:36:43.031Z,157.50
2018-05-24T06:37:43.023Z,157.50
2018-05-24T06:38:43.012Z,168.75
2018-05-24T06:39:42.994Z,174.38
2018-05-24T06:40:42.982Z,191.25
2018-05-24T06:41:42.981Z,202.50
2018-05-24T06:42:43.026Z,202.50
2018-05-24T06:43:42.962Z,208.13
2018-05-24T06:44:43.103Z,213.75
2018-05-24T06:45:42.935Z,213.75
2018-05-24T06:46:42.923Z,213.75
2018-05-24T06:47:42.910Z,208.13
2018-05-24T06:48:42.934Z,213.75
2018-05-24T06:49:42.887Z,219.38
2018-05-24T06:50:42.907Z,225.00
2018-05-24T06:51:42.872Z,225.00
2018-05-24T06:52:42.855Z,230.63
2018-05-24T06:53:42.907Z,236.25
2018-05-24T06:54:42.891Z,236.25
2018-05-24T06:55:42.826Z,241.88
2018-05-24T06:56:42.817Z,247.50
2018-05-24T06:57:42.804Z,247.50
2018-05-24T06:58:42.805Z,253.13
2018-05-24T06:59:42.792Z,258.75
2018-05-24T07:00:42.782Z,264.38
2018-05-24T07:01:42.768Z,270.00
2018-05-24T07:02:42.760Z,270.00
2018-05-24T07:03:42.745Z,264.38
2018-05-24T07:04:42.738Z,264.38
2018-05-24T07:05:42.724Z,270.00
2018-05-24T07:06:42.721Z,275.63
2018-05-24T07:07:42.710Z,292.50
2018-05-24T07:08:42.697Z,298.13
2018-05-24T07:09:42.688Z,292.50
2018-05-24T07:10:42.675Z,292.50
2018-05-24T07:11:42.672Z,275.63
2018-05-24T07:12:42.663Z,264.38
2018-05-24T07:13:42.651Z,258.75
2018-05-24T07:14:42.646Z,270.00
2018-05-24T07:15:42.631Z,286.88
2018-05-24T07:16:42.632Z,286.88
2018-05-24T07:17:42.615Z,281.25
2018-05-24T07:18:42.626Z,281.25
2018-05-24T07:19:42.598Z,275.63
2018-05-24T07:20:42.589Z,270.00
2018-05-24T07:21:42.581Z,264.38
2018-05-24T07:22:42.572Z,253.13
2018-05-24T07:23:42.560Z,253.13
2018-05-24T07:24:42.666Z,247.50
2018-05-24T07:25:42.534Z,247.50
2018-05-24T07:26:42.535Z,241.88
2018-05-24T07:27:42.528Z,241.88
2018-05-24T07:28:42.529Z,236.25
2018-05-24T07:29:42.510Z,236.25
2018-05-24T07:30:42.499Z,236.25
2018-05-24T07:31:42.535Z,230.63
2018-05-24T07:32:42.481Z,219.38
2018-05-24T07:33:42.525Z,213.75
2018-05-24T07:34:42.503Z,202.50
2018-05-24T07:35:42.493Z,185.63
2018-05-24T07:36:42.441Z,180.00
2018-05-24T07:37:42.439Z,168.75
2018-05-24T07:38:42.424Z,157.50
2018-05-24T07:39:42.429Z,163.13
2018-05-24T07:40:42.404Z,163.13
2018-05-24T07:41:42.387Z,168.75
2018-05-24T07:42:42.388Z,163.13
2018-05-24T07:43:42.385Z,157.50
2018-05-24T07:44:42.365Z,151.88
2018-05-24T07:45:42.358Z,163.13
2018-05-24T07:46:42.349Z,163.13
2018-05-24T07:47:42.340Z,174.38
2018-05-24T07:48:42.332Z,185.63
2018-05-24T07:49:42.313Z,202.50
2018-05-24T07:50:42.309Z,202.50
2018-05-24T07:51:42.297Z,208.13
2018-05-24T07:52:42.287Z,219.38
2018-05-24T07:53:42.282Z,230.63
2018-05-24T07:54:42.345Z,236.25
2018-05-24T07:55:42.262Z,241.88
2018-05-24T07:56:42.253Z,253.13
2018-05-24T07:57:42.239Z,247.50
2018-05-24T07:58:42.233Z,247.50
2018-05-24T07:59:42.232Z,253.13
2018-05-24T08:00:42.218Z,253.13
2018-05-24T08:01:42.240Z,264.38
2018-05-24T08:02:42.208Z,281.25
2018-05-24T08:03:42.182Z,303.75
2018-05-24T08:04:42.182Z,326.25
2018-05-24T08:05:42.172Z,354.38
2018-05-24T08:06:42.160Z,354.38
2018-05-24T08:07:42.157Z,348.75
2018-05-24T08:08:42.216Z,360.00
2018-05-24T08:09:42.141Z,410.63
2018-05-24T08:10:42.131Z,410.63
2018-05-24T08:11:42.128Z,405.00
2018-05-24T08:12:42.111Z,421.88
2018-05-24T08:13:42.109Z,416.25
2018-05-24T08:14:42.134Z,433.13
2018-05-24T08:15:42.098Z,427.50
2018-05-24T08:16:42.079Z,438.75
2018-05-24T08:17:42.078Z,455.63
2018-05-24T08:18:42.064Z,444.38
2018-05-24T08:19:42.056Z,444.38
2018-05-24T08:20:42.050Z,438.75
2018-05-24T08:21:42.125Z,421.88
2018-05-24T08:22:42.059Z,438.75
2018-05-24T08:23:42.041Z,466.88
2018-05-24T08:24:42.024Z,506.25
2018-05-24T08:25:42.005Z,483.75
2018-05-24T08:26:42.009Z,495.00
2018-05-24T08:27:42.002Z,596.25
2018-05-24T08:28:41.992Z,753.75
2018-05-24T08:29:41.980Z,652.50
2018-05-24T08:30:42.003Z,804.38
2018-05-24T08:31:41.980Z,663.75
2018-05-24T08:32:41.974Z,765.00
2018-05-24T08:33:41.962Z,922.50
2018-05-24T08:34:41.962Z,680.63
2018-05-24T08:35:41.944Z,663.75
2018-05-24T08:36:41.945Z,883.13
2018-05-24T08:37:41.939Z,489.38
2018-05-24T08:38:41.942Z,388.13
2018-05-24T08:39:41.928Z,444.38
2018-05-24T08:40:41.969Z,489.38
2018-05-24T08:41:41.990Z,1096.88
2018-05-24T08:42:41.908Z,810.00
2018-05-24T08:43:41.907Z,1271.25
2018-05-24T08:44:41.904Z,1338.75
2018-05-24T08:45:41.904Z,1383.75
2018-05-24T08:46:41.896Z,1389.38
2018-05-24T08:47:41.888Z,1344.38
2018-05-24T08:48:41.886Z,1299.38
2018-05-24T08:49:41.882Z,1305.00
2018-05-24T08:50:41.886Z,1305.00
2018-05-24T08:51:41.884Z,1305.00
2018-05-24T08:52:41.889Z,1215.00
2018-05-24T08:53:41.873Z,1192.50
2018-05-24T08:54:41.867Z,1085.63
2018-05-24T08:55:41.878Z,1237.50
2018-05-24T08:56:41.879Z,1231.88
2018-05-24T08:57:41.860Z,933.75
2018-05-24T08:58:41.859Z,804.38
2018-05-24T08:59:41.857Z,523.13
2018-05-24T09:00:41.859Z,787.50
2018-05-24T09:01:41.877Z,1338.75
2018-05-24T09:02:41.863Z,1378.13
2018-05-24T09:03:41.851Z,1428.75
2018-05-24T09:04:41.854Z,1411.88
2018-05-24T09:05:41.847Z,1305.00
2018-05-24T09:06:41.848Z,973.13
2018-05-24T09:07:41.845Z,1265.63
2018-05-24T09:08:41.843Z,984.38
2018-05-24T09:09:41.844Z,1096.88
2018-05-24T09:10:41.838Z,433.13
2018-05-24T09:11:41.844Z,562.50
2018-05-24T09:12:41.848Z,495.00
2018-05-24T09:13:41.865Z,534.38
2018-05-24T09:14:41.846Z,748.13
2018-05-24T09:15:41.851Z,708.75
2018-05-24T09:16:41.849Z,551.25
2018-05-24T09:17:41.834Z,1125.00
2018-05-24T09:18:41.843Z,781.88
2018-05-24T09:19:41.832Z,1119.38
2018-05-24T09:20:41.829Z,832.50
2018-05-24T09:21:41.885Z,517.50
2018-05-24T09:22:41.822Z,331.88
2018-05-24T09:23:41.816Z,421.88
2018-05-24T09:24:41.835Z,309.38
2018-05-24T09:25:41.811Z,337.50
2018-05-24T09:26:41.816Z,382.50
2018-05-24T09:27:41.803Z,871.88
2018-05-24T09:28:41.793Z,646.88
2018-05-24T09:29:41.800Z,354.38
2018-05-24T09:30:41.890Z,376.88
2018-05-24T09:31:41.791Z,405.00
2018-05-24T09:32:41.784Z,382.50
2018-05-24T09:33:41.774Z,736.88
2018-05-24T09:34:41.767Z,388.13
2018-05-24T09:35:41.774Z,382.50
2018-05-24T09:36:41.759Z,399.38
2018-05-24T09:37:41.764Z,365.63
2018-05-24T09:38:41.758Z,585.00
2018-05-24T09:39:41.748Z,961.88
2018-05-24T09:40:41.754Z,984.38
2018-05-24T09:41:41.738Z,652.50
2018-05-24T09:42:41.732Z,309.38
2018-05-24T09:43:41.733Z,337.50
2018-05-24T09:44:41.721Z,331.88
2018-05-24T09:45:41.723Z,455.63
2018-05-24T09:46:41.726Z,455.63
2018-05-24T09:47:41.713Z,455.63
2018-05-24T09:48:41.700Z,450.00
2018-05-24T09:49:41.703Z,455.63
2018-05-24T09:50:41.688Z,450.00
2018-05-24T09:51:41.707Z,455.63
2018-05-24T09:52:41.684Z,455.63
2018-05-24T09:53:41.684Z,455.63
2018-05-24T09:54:41.678Z,472.50
2018-05-24T09:55:41.760Z,466.88
2018-05-24T09:56:41.662Z,466.88
2018-05-24T09:57:41.781Z,461.25
2018-05-24T09:58:41.665Z,427.50
2018-05-24T09:59:41.667Z,444.38
2018-05-24T10:00:41.653Z,427.50
2018-05-24T10:01:41.697Z,427.50
2018-05-24T10:02:41.642Z,388.13
2018-05-24T10:03:41.639Z,337.50
2018-05-24T10:04:41.743Z,315.00
2018-05-24T10:05:41.681Z,275.63
2018-05-24T10:06:41.627Z,286.88
2018-05-24T10:07:41.627Z,337.50
2018-05-24T10:08:41.617Z,376.88
2018-05-24T10:09:41.617Z,343.13
2018-05-24T10:10:41.642Z,354.38
2018-05-24T10:11:41.611Z,354.38
2018-05-24T10:12:41.606Z,371.25
2018-05-24T10:13:41.598Z,393.75
2018-05-24T10:14:41.597Z,360.00
2018-05-24T10:15:41.601Z,292.50
2018-05-24T10:16:41.591Z,281.25
2018-05-24T10:17:41.595Z,270.00
2018-05-24T10:18:41.576Z,258.75
2018-05-24T10:19:41.575Z,258.75
2018-05-24T10:20:41.573Z,241.88
2018-05-24T10:21:41.573Z,219.38
2018-05-24T10:22:41.564Z,208.13
2018-05-24T10:23:41.556Z,185.63
2018-05-24T10:24:41.556Z,174.38
2018-05-24T10:25:41.542Z,163.13
2018-05-24T10:26:41.544Z,151.88
2018-05-24T10:27:41.581Z,146.25
2018-05-24T10:28:41.575Z,146.25
2018-05-24T10:29:41.529Z,135.00
2018-05-24T10:30:41.521Z,135.00
2018-05-24T10:31:41.516Z,129.38
2018-05-24T10:32:41.547Z,135.00
2018-05-24T10:33:41.496Z,135.00
2018-05-24T10:34:41.502Z,135.00
2018-05-24T10:35:41.487Z,135.00
2018-05-24T10:36:41.493Z,135.00
2018-05-24T10:37:41.465Z,135.00
2018-05-24T10:38:41.470Z,140.63
2018-05-24T10:39:41.458Z,135.00
2018-05-24T10:40:41.452Z,135.00
2018-05-24T10:41:41.444Z,140.63
2018-05-24T10:42:41.437Z,146.25
2018-05-24T10:43:41.430Z,157.50
2018-05-24T10:44:41.429Z,163.13
2018-05-24T10:45:41.423Z,174.38
2018-05-24T10:46:41.422Z,180.00
2018-05-24T10:47:41.410Z,185.63
2018-05-24T10:48:41.398Z,185.63
2018-05-24T10:49:41.389Z,185.63
2018-05-24T10:50:41.382Z,191.25
2018-05-24T10:51:41.382Z,196.88
2018-05-24T10:52:41.368Z,208.13
2018-05-24T10:53:41.360Z,208.13
2018-05-24T10:54:41.356Z,213.75
2018-05-24T10:55:41.347Z,219.38
2018-05-24T10:56:41.376Z,225.00
2018-05-24T10:57:41.341Z,213.75
2018-05-24T10:58:41.333Z,213.75
2018-05-24T10:59:41.375Z,208.13
2018-05-24T11:00:41.314Z,208.13
2018-05-24T11:01:41.305Z,208.13
2018-05-24T11:02:41.302Z,208.13
2018-05-24T11:03:41.292Z,219.38
2018-05-24T11:04:41.282Z,225.00
2018-05-24T11:05:41.270Z,225.00
2018-05-24T11:06:41.263Z,230.63
2018-05-24T11:07:41.257Z,247.50
2018-05-24T11:08:41.256Z,286.88
2018-05-24T11:09:41.254Z,253.13
2018-05-24T11:10:41.243Z,241.88
2018-05-24T11:11:41.285Z,258.75
2018-05-24T11:12:41.228Z,292.50
2018-05-24T11:13:41.219Z,376.88
2018-05-24T11:14:41.212Z,343.13
2018-05-24T11:15:41.203Z,315.00
2018-05-24T11:16:41.206Z,281.25
2018-05-24T11:17:41.193Z,270.00
2018-05-24T11:18:41.181Z,292.50
2018-05-24T11:19:41.181Z,343.13
2018-05-24T11:20:41.182Z,230.63
2018-05-24T11:21:41.168Z,208.13
2018-05-24T11:22:41.158Z,208.13
2018-05-24T11:23:41.155Z,219.38
2018-05-24T11:24:41.210Z,213.75
2018-05-24T11:25:41.140Z,208.13
2018-05-24T11:26:41.142Z,146.25
2018-05-24T11:27:41.123Z,123.75
2018-05-24T11:28:41.116Z,106.88
2018-05-24T11:29:41.115Z,101.25
2018-05-24T11:30:41.112Z,101.25
2018-05-24T11:31:41.118Z,106.88
2018-05-24T11:32:41.095Z,112.50
2018-05-24T11:33:41.088Z,118.13
2018-05-24T11:34:41.079Z,112.50
2018-05-24T11:35:41.073Z,112.50
2018-05-24T11:36:41.070Z,106.88
2018-05-24T11:37:41.066Z,106.88
2018-05-24T11:38:41.057Z,106.88
2018-05-24T11:39:41.046Z,106.88
2018-05-24T11:40:41.038Z,106.88
2018-05-24T11:41:41.028Z,106.88
2018-05-24T11:42:41.028Z,106.88
2018-05-24T11:43:41.021Z,106.88
2018-05-24T11:44:41.009Z,112.50
2018-05-24T11:45:41.003Z,118.13
2018-05-24T11:46:40.990Z,118.13
2018-05-24T11:47:40.996Z,118.13
2018-05-24T11:48:40.978Z,118.13
2018-05-24T11:49:40.967Z,118.13
2018-05-24T11:50:40.964Z,112.50
2018-05-24T11:51:40.948Z,106.88
2018-05-24T11:52:40.948Z,106.88
2018-05-24T11:53:40.931Z,95.63
2018-05-24T11:54:40.928Z,90.00
2018-05-24T11:55:40.923Z,84.38
2018-05-24T11:56:40.908Z,78.75
2018-05-24T11:57:40.898Z,78.75
2018-05-24T11:58:40.902Z,73.13
2018-05-24T11:59:40.892Z,73.13
2018-05-24T12:00:40.876Z,73.13
2018-05-24T12:01:40.889Z,73.13
2018-05-24T12:02:40.868Z,73.13
2018-05-24T12:03:40.856Z,73.13
2018-05-24T12:04:40.843Z,73.13
2018-05-24T12:05:40.831Z,73.13
2018-05-24T12:06:40.830Z,67.50
2018-05-24T12:07:40.814Z,67.50
2018-05-24T12:08:40.821Z,67.50
2018-05-24T12:09:40.812Z,67.50
2018-05-24T12:10:40.789Z,67.50
2018-05-24T12:11:40.792Z,67.50
2018-05-24T12:12:40.777Z,67.50
2018-05-24T12:13:40.760Z,73.13
2018-05-24T12:14:40.757Z,73.13
2018-05-24T12:15:40.748Z,73.13
2018-05-24T12:16:40.744Z,78.75
2018-05-24T12:17:40.741Z,84.38
2018-05-24T12:18:40.729Z,90.00
2018-05-24T12:19:40.718Z,95.63
2018-05-24T12:20:40.708Z,95.63
2018-05-24T12:21:40.700Z,101.25
2018-05-24T12:22:40.685Z,101.25
2018-05-24T12:23:40.679Z,101.25
2018-05-24T12:24:40.666Z,95.63
2018-05-24T12:25:40.675Z,95.63
2018-05-24T12:26:40.655Z,95.63
2018-05-24T12:27:40.645Z,90.00
2018-05-24T12:28:40.634Z,84.38
2018-05-24T12:29:40.627Z,78.75
2018-05-24T12:30:40.621Z,78.75
2018-05-24T12:31:40.612Z,78.75
2018-05-24T12:32:40.602Z,78.75
2018-05-24T12:33:40.683Z,78.75
2018-05-24T12:34:40.577Z,78.75
2018-05-24T12:35:40.597Z,78.75
2018-05-24T12:36:40.563Z,84.38
2018-05-24T12:37:40.557Z,84.38
2018-05-24T12:38:40.545Z,84.38
2018-05-24T12:39:40.599Z,90.00
2018-05-24T12:40:40.525Z,90.00
2018-05-24T12:41:40.563Z,90.00
2018-05-24T12:42:40.504Z,84.38
2018-05-24T12:43:40.547Z,78.75
2018-05-24T12:44:40.486Z,73.13
2018-05-24T12:45:40.479Z,67.50
2018-05-24T12:46:40.467Z,67.50
2018-05-24T12:47:40.457Z,61.88
2018-05-24T12:48:40.455Z,45.00